N112 -KSAN
Flight info
| Callsign | N112 |
|---|---|
| Flight time | N/A |
| Altitude | VFR |
| Route | |
| Aircraft | C208/L-VGD/A |
Departure
| Time | N/A |
|---|---|
| Airport | - |
Arrival
| Time | 2026-05-04 22:16 |
|---|---|
| Airport | San Diego International Airport (KSAN) |
| Time | Latitude | Longitude | Altitude | Speed | Heading |
|---|---|---|---|---|---|
| 2026-05-04 22:09 | 32.80408 | -117.29657 | 2179 ft | 122 kts | 188° |
| 2026-05-04 22:10 | 32.79534 | -117.29772 | 2049 ft | 130 kts | 191° |
| 2026-05-04 22:10 | 32.78626 | -117.29535 | 1881 ft | 142 kts | 150° |
| 2026-05-04 22:10 | 32.77928 | -117.28704 | 1794 ft | 144 kts | 125° |
| 2026-05-04 22:10 | 32.77492 | -117.27618 | 1672 ft | 145 kts | 114° |
| 2026-05-04 22:11 | 32.77118 | -117.26484 | 1448 ft | 150 kts | 112° |
| 2026-05-04 22:11 | 32.76799 | -117.25333 | 1402 ft | 145 kts | 108° |
| 2026-05-04 22:11 | 32.76541 | -117.24187 | 1381 ft | 140 kts | 105° |
| 2026-05-04 22:11 | 32.76317 | -117.23070 | 1364 ft | 138 kts | 103° |
| 2026-05-04 22:12 | 32.76114 | -117.21987 | 1434 ft | 132 kts | 102° |
| 2026-05-04 22:12 | 32.75927 | -117.20923 | 1451 ft | 132 kts | 102° |
| 2026-05-04 22:12 | 32.75688 | -117.19479 | 1388 ft | 137 kts | 100° |
| 2026-05-04 22:12 | 32.75570 | -117.18720 | 1346 ft | 139 kts | 99° |
| 2026-05-04 22:13 | 32.75437 | -117.17616 | 1259 ft | 132 kts | 97° |
| 2026-05-04 22:13 | 32.75320 | -117.16564 | 1179 ft | 131 kts | 94° |
| 2026-05-04 22:13 | 32.75153 | -117.15504 | 1123 ft | 125 kts | 115° |
| 2026-05-04 22:13 | 32.74565 | -117.14850 | 1043 ft | 114 kts | 172° |
| 2026-05-04 22:14 | 32.73891 | -117.14964 | 891 ft | 90 kts | 206° |
| 2026-05-04 22:14 | 32.73308 | -117.15228 | 780 ft | 91 kts | 213° |
| 2026-05-04 22:14 | 32.72774 | -117.15650 | 646 ft | 92 kts | 239° |
| 2026-05-04 22:14 | 32.72707 | -117.16274 | 450 ft | 66 kts | 283° |
| 2026-05-04 22:15 | 32.72824 | -117.16787 | 311 ft | 65 kts | 288° |
| 2026-05-04 22:15 | 32.72926 | -117.17191 | 182 ft | 58 kts | 285° |
| 2026-05-04 22:15 | 32.73039 | -117.17654 | 88 ft | 58 kts | 285° |
| 2026-05-04 22:15 | 32.73145 | -117.18093 | 30 ft | 53 kts | 286° |
| 2026-05-04 22:16 | 32.73230 | -117.18446 | 26 ft | 32 kts | 286° |
| 2026-05-04 22:16 | 32.73278 | -117.18640 | 28 ft | 30 kts | 286° |
| 2026-05-04 22:16 | 32.73349 | -117.18812 | 24 ft | 17 kts | 333° |
| 2026-05-04 22:16 | 32.73412 | -117.18794 | 21 ft | 3 kts | 50° |
| 2026-05-04 22:17 | 32.73417 | -117.18744 | 15 ft | 14 kts | 104° |
| 2026-05-04 22:17 | 32.73380 | -117.18588 | 26 ft | 20 kts | 107° |
| 2026-05-04 22:17 | 32.73330 | -117.18381 | 26 ft | 24 kts | 104° |
| 2026-05-04 22:17 | 32.73277 | -117.18159 | 25 ft | 30 kts | 107° |
| 2026-05-04 22:18 | 32.73254 | -117.17991 | 25 ft | 15 kts | 48° |
| 2026-05-04 22:18 | 32.73331 | -117.17961 | 29 ft | 11 kts | 15° |
| 2026-05-04 22:18 | 32.73353 | -117.17882 | 30 ft | 5 kts | 174° |
| 2026-05-04 22:18 | 32.73345 | -117.17883 | 32 ft | 0 kts | 193° |